메인 페이지
METAR-TAF:

METAR-TAF

공항 :

비라코푸스 캄피나스 국제공항

캄피나스, 상파울루, 브라질

위도: 23-00S, 경도: 047-08W, 고도: 661m

현재 날씨관측

예보는 17분 전, 10:00시(UTC)에 발표되었습니다.
동남동4kt
온도 19°C
습도 94%
기압 1007 hPa
시정 10km 이상
고도 2600ft 상공 구름 많음

METAR: SBKP 301000Z 12004KT 9999 BKN026 19/18 Q1007

시각: 08:17 (10:17 UTC)

예보

예보는 5 시간 47분 전, 04:30시(UTC)에 발표되었습니다.
예보 대상 시간: 30일 06시부터 01일 06시까지 (UTC)
남동8kt
시정: 8000m
고도 1000ft 상공 구름 보통
전환 중
30일 08시부터 30일 10시까지 (UTC)
동북동5kt
시정 10km 이상
고도 2000ft 상공 구름 조금
전환 중
30일 10시부터 30일 12시까지 (UTC)
북북동5kt
고도 3000ft 상공 구름 보통
일시적
30일 15시부터 30일 18시까지 (UTC)
10kt
고도 3000ft 상공 구름 많음
고도 4000ft 상공 구름 조금, 타워링 적운.
소나기
일시적
30일 18시부터 30일 24시까지 (UTC)
서북서12kt
시정: 8000m
고도 2000ft 상공 구름 많음
고도 4000ft 상공 구름 조금, 적란운.
뇌우, 비
전환 중
01일 00시부터 01일 02시까지 (UTC)
북동5kt
시정: 6000m
고도 1000ft 상공 구름 보통

TAF: SBKP 300430Z 3006/0106 13008KT 8000 SCT010 TN17/3009Z TX28/3016Z BECMG 3008/3010 06005KT 9999 FEW020 BECMG 3010/3012 03005KT SCT030 TEMPO 3015/3018 35010KT SHRA BKN030 FEW040TCU TEMPO 3018/3024 30012KT 8000 TSRA BKN020 FEW040CB BECMG 0100/0102 04005KT 6000 SCT010 RMK PGL

4,000개 이상의 공항 관측 자료 및 예보 (METAR 및 TAF 보고).

지도상에서 검색 가능한 기상관측소가 노란 점과 빨간 점으로 표시되어 있습니다.

기상관측소 명을 보려면 표시 위로 마우스를 이동하세요.

날씨 관측과 예보를 보려면 클릭하세요.

지도 변경 : 확대하려면 엑스 표시가 있는 녹색 버튼, 축소하려면 빼기 표시가 있는 녹색 버튼, 다음 페이지의 지도를 보려면 녹색 화살표를 클릭하세요.


METAR-TAF: